Terminal Aerodrome Forecast
Issued by NWS

Home | Current Version | Previous Version | Text Only | Print | Product List | Glossary On
Versions: 1 2 3 4 5 6 7 8 9 10 11 12 13 14 15 16 17 18
579
FTUS41 KGYX 302329
TAFLEB
TAF
KLEB 302329Z 3100/3124 20008KT P6SM BKN250
     FM310300 VRB03KT P6SM SCT250
     FM310700 19002KT 3SM BR SCT002
     FM311200 26006KT P6SM SKC
     FM311500 28011KT P6SM SKC=

USA.gov is the U.S. government's official web portal to all federal, state and local government web resources and services.